Greenfield, MO (65661)

7:25 PM CDT on April 23, 2017 (GMT -0500)
MD5684 | | Change Station

Elev 1069 ft 37.39 °N, 93.95 °W | Updated 59 minutes ago

Clear
Clear
67.0 °F
Feels Like 67.0 °F
N
1.0
Wind Variable Wind from NNW

Today
High -- | Low -- °F
--% Chance of Precip.
Yesterday
High -- | Low -- °F
Precip. -- in
Pressure 30.04 in
Visibility 10.0 miles
Clouds Clear
Dew Point 44 °F
Humidity 44%
Rainfall 0.00 in
Snow Depth Not available.
6:29 AM 7:58 PM
Waning Crescent, 9% visible
METAR KSGF 232352Z 01007KT 10SM CLR 19/01 A3003 RMK AO2 SLP170 T01890011 10206 20178 58006
Pressure 30.04 in
Visibility 10.0 miles
Clouds Clear
Dew Point 44 °F
Humidity 44%
Rainfall 0.00 in
Snow Depth Not available.
6:29 AM 7:58 PM
Waning Crescent, 9% visible
METAR KSGF 232352Z 01007KT 10SM CLR 19/01 A3003 RMK AO2 SLP170 T01890011 10206 20178 58006

Get Severe Weather Alerts

Thanks for signing up!

Be on the lookout for a verification email in your inbox.

You'll start receiving the daily forecast at 8 AM.

×

10-Day Weather Forecast

Almanac

Astronomy

Apr. 23, 2017 Rise Set
Actual Time
Civil Twilight
Nautical Twilight
Astronomical Twilight
Moon
Length of Visible Light
Length of Day
Tomorrow will be .
, % of the Moon is Illuminated

Today's Extremes

State Highs State Lows

Community

WunderPhotos

WunderBlog® & News

Nearby

Air Quality

  Air Quality AQ Index Pollutant
Not available.

Snow Depth

Station Depth Elevation

Earthquake Activity

City Distance Mag. Time & Date
Minimum magnitude displayed is 2.5.

Coastal Water Temperatures

Place Temperature

Stations

Nearby Weather Stations

Station Location Temp. Windchill Dew Point Humidity Wind Precip. Elev Updated Type
                   

Watches & Warnings

There are currently no watches in effect.